createdAt,value
2019-05-10T00:00:36.954Z,83.74
2019-05-10T00:03:23.452Z,83.33
2019-05-10T00:06:09.935Z,83.64
2019-05-10T00:08:47.079Z,83.74
2019-05-10T00:11:28.650Z,84.41
2019-05-10T00:14:15.417Z,85.16
2019-05-10T00:16:45.209Z,85.51
2019-05-10T00:19:13.605Z,85.76
2019-05-10T00:21:42.032Z,85.01
2019-05-10T00:24:10.428Z,85.19
2019-05-10T00:26:39.246Z,85.19
2019-05-10T00:29:07.904Z,84.64
2019-05-10T00:31:36.363Z,85.04
2019-05-10T00:34:04.921Z,84.92
2019-05-10T00:36:33.341Z,84.25
2019-05-10T00:39:01.774Z,84.37
2019-05-10T00:41:30.154Z,84.22
2019-05-10T00:43:58.572Z,83.97
2019-05-10T00:46:26.959Z,83.33
2019-05-10T00:48:55.660Z,83.12
2019-05-10T00:51:24.153Z,83.87
2019-05-10T00:53:52.545Z,84.25
2019-05-10T00:56:20.935Z,83.08
2019-05-10T00:58:49.350Z,82.90
2019-05-10T01:01:18.801Z,83.47
2019-05-10T01:03:47.217Z,83.81
2019-05-10T01:06:15.631Z,84.23
2019-05-10T01:08:44.342Z,84.56
2019-05-10T01:11:13.007Z,85.08
2019-05-10T01:13:41.444Z,85.50
2019-05-10T01:16:09.901Z,85.77
2019-05-10T01:18:38.293Z,86.36
2019-05-10T01:21:06.706Z,85.72
2019-05-10T01:23:35.091Z,84.79
2019-05-10T01:26:03.478Z,84.92
2019-05-10T01:28:31.900Z,85.26
2019-05-10T01:31:00.283Z,85.29
2019-05-10T01:33:28.675Z,83.50
2019-05-10T01:35:57.249Z,83.64
2019-05-10T01:38:25.641Z,84.15
2019-05-10T01:40:54.026Z,85.06
2019-05-10T01:43:22.440Z,84.40
2019-05-10T01:45:50.839Z,85.25
2019-05-10T01:48:19.226Z,85.91
2019-05-10T01:50:47.647Z,86.78
2019-05-10T01:53:16.038Z,87.35
2019-05-10T01:55:52.147Z,87.95
2019-05-10T01:58:14.852Z,87.81
2019-05-10T02:00:43.235Z,87.69
2019-05-10T02:03:11.624Z,87.32
2019-05-10T02:05:40.044Z,87.19
2019-05-10T02:08:08.434Z,86.96
2019-05-10T02:10:36.819Z,86.01
2019-05-10T02:13:05.227Z,85.94
2019-05-10T02:15:33.913Z,85.27
2019-05-10T02:18:02.302Z,85.87
2019-05-10T02:20:30.724Z,86.39
2019-05-10T02:22:59.143Z,85.86
2019-05-10T02:25:27.503Z,85.20
2019-05-10T02:27:55.919Z,85.41
2019-05-10T02:30:24.308Z,86.82
2019-05-10T02:32:52.693Z,86.34
2019-05-10T02:35:21.097Z,85.29
2019-05-10T02:37:49.487Z,85.72
2019-05-10T02:40:18.237Z,85.89
2019-05-10T02:42:46.679Z,84.75
2019-05-10T02:45:15.500Z,84.19
2019-05-10T02:47:43.886Z,83.35
2019-05-10T02:50:12.832Z,83.67
2019-05-10T02:52:41.217Z,82.63
2019-05-10T02:55:10.982Z,82.59
2019-05-10T02:57:39.774Z,83.54
2019-05-10T03:00:09.439Z,84.24
2019-05-10T03:02:38.568Z,84.92
2019-05-10T03:05:07.626Z,85.32
2019-05-10T03:07:38.223Z,85.72
2019-05-10T03:10:09.317Z,85.67
2019-05-10T03:12:40.524Z,86.56
2019-05-10T03:15:11.481Z,87.48
2019-05-10T03:17:41.481Z,87.54
2019-05-10T03:20:10.631Z,87.48
2019-05-10T03:22:43.628Z,87.10
2019-05-10T03:25:13.816Z,87.30
2019-05-10T03:27:42.528Z,87.11
2019-05-10T03:30:11.663Z,87.15
2019-05-10T03:32:40.050Z,87.02
2019-05-10T03:35:08.996Z,87.00
2019-05-10T03:37:37.382Z,87.11
2019-05-10T03:40:10.057Z,87.33
2019-05-10T03:42:38.460Z,86.91
2019-05-10T03:45:07.800Z,86.34
2019-05-10T03:47:36.209Z,86.68
2019-05-10T03:50:06.641Z,87.43
2019-05-10T03:52:35.023Z,87.57
2019-05-10T03:55:03.699Z,87.54
2019-05-10T03:57:32.081Z,87.66
2019-05-10T04:00:00.486Z,87.89
2019-05-10T04:02:28.950Z,88.24
2019-05-10T04:04:57.340Z,88.19
2019-05-10T04:07:25.738Z,88.09
2019-05-10T04:09:54.148Z,87.35
2019-05-10T04:12:22.532Z,87.39
2019-05-10T04:14:50.923Z,87.70
2019-05-10T04:17:19.329Z,87.10
2019-05-10T04:19:47.717Z,86.99
2019-05-10T04:22:16.144Z,86.71
2019-05-10T04:24:44.530Z,86.23
2019-05-10T04:27:30.632Z,86.38
2019-05-10T04:29:43.138Z,86.66
2019-05-10T04:32:11.522Z,87.94
2019-05-10T04:34:39.913Z,88.45
2019-05-10T04:37:08.328Z,88.86
2019-05-10T04:39:37.020Z,89.11
2019-05-10T04:42:05.426Z,89.59
2019-05-10T04:44:33.838Z,88.90
2019-05-10T04:47:02.230Z,87.97
2019-05-10T04:49:30.619Z,88.22
2019-05-10T04:51:59.155Z,88.66
2019-05-10T04:54:27.538Z,90.09
2019-05-10T04:56:59.975Z,90.85
2019-05-10T04:59:26.055Z,91.23
2019-05-10T05:01:54.696Z,91.55
2019-05-10T05:04:23.086Z,90.44
2019-05-10T05:06:51.490Z,90.53
2019-05-10T05:09:20.020Z,90.87
2019-05-10T05:11:48.418Z,90.52
2019-05-10T05:14:16.827Z,89.97
2019-05-10T05:16:45.228Z,89.04
2019-05-10T05:19:13.937Z,89.22
2019-05-10T05:21:42.350Z,89.90
2019-05-10T05:24:11.031Z,90.48
2019-05-10T05:26:40.836Z,88.90
2019-05-10T05:29:09.244Z,89.16
2019-05-10T05:31:37.639Z,88.53
2019-05-10T05:34:06.436Z,90.84
2019-05-10T05:36:34.823Z,89.20
2019-05-10T05:39:04.692Z,87.90
2019-05-10T05:41:47.609Z,85.46
2019-05-10T05:44:03.559Z,85.01
2019-05-10T05:46:31.956Z,83.11
2019-05-10T05:49:00.348Z,82.55
2019-05-10T05:51:28.812Z,82.03
2019-05-10T05:53:57.175Z,80.92
2019-05-10T05:56:25.746Z,79.29
2019-05-10T05:58:54.166Z,78.39
2019-05-10T06:01:26.196Z,76.88
2019-05-10T06:03:52.683Z,73.84
2019-05-10T06:06:23.205Z,74.08
2019-05-10T06:08:54.559Z,72.44
2019-05-10T06:11:21.334Z,71.14
2019-05-10T06:13:49.745Z,72.20
2019-05-10T06:16:18.142Z,72.75
2019-05-10T06:18:47.283Z,71.62
2019-05-10T06:21:17.756Z,71.64
2019-05-10T06:23:46.805Z,70.18
2019-05-10T06:26:26.243Z,69.10
2019-05-10T06:28:58.272Z,68.45
2019-05-10T06:31:15.472Z,70.76
2019-05-10T06:33:44.992Z,70.09
2019-05-10T06:36:14.021Z,70.04
2019-05-10T06:38:42.487Z,68.79
2019-05-10T06:41:16.716Z,66.45
2019-05-10T06:43:45.696Z,67.98
2019-05-10T06:46:11.147Z,66.58
2019-05-10T06:48:39.536Z,65.62
2019-05-10T06:51:09.707Z,66.56
2019-05-10T06:53:41.577Z,66.23
2019-05-10T06:56:08.539Z,68.02
2019-05-10T06:58:38.501Z,66.92
2019-05-10T07:01:06.929Z,70.40
2019-05-10T07:03:36.121Z,69.48
2019-05-10T07:06:04.533Z,68.41
2019-05-10T07:08:43.599Z,66.18
2019-05-10T07:11:03.045Z,67.22
2019-05-10T07:13:31.621Z,65.33
2019-05-10T07:16:00.015Z,66.84
2019-05-10T07:18:28.405Z,64.92
2019-05-10T07:21:00.943Z,62.71
2019-05-10T07:23:29.957Z,64.37
2019-05-10T07:25:57.072Z,62.14
2019-05-10T07:28:25.504Z,62.44
2019-05-10T07:30:54.128Z,62.51
2019-05-10T07:33:22.522Z,61.72
2019-05-10T07:35:51.006Z,60.99
2019-05-10T07:38:27.853Z,62.20
2019-05-10T07:40:49.456Z,62.21
2019-05-10T07:43:25.796Z,60.74
2019-05-10T07:45:48.139Z,60.38
2019-05-10T07:48:16.882Z,59.25
2019-05-10T07:50:49.177Z,60.26
2019-05-10T07:53:16.193Z,57.58
2019-05-10T07:55:45.898Z,59.11
2019-05-10T07:58:14.312Z,58.30
2019-05-10T08:00:44.269Z,57.34
2019-05-10T08:03:16.761Z,56.27
2019-05-10T08:05:46.410Z,57.76
2019-05-10T08:08:13.421Z,58.31
2019-05-10T08:10:42.042Z,54.91
2019-05-10T08:13:10.457Z,54.02
2019-05-10T08:15:38.846Z,53.96
2019-05-10T08:18:09.649Z,55.38
2019-05-10T08:20:49.198Z,53.88
2019-05-10T08:23:07.505Z,53.42
2019-05-10T08:25:40.980Z,53.47
2019-05-10T08:28:06.060Z,53.93
2019-05-10T08:30:42.582Z,52.65
2019-05-10T08:33:09.971Z,51.69
2019-05-10T08:35:41.162Z,53.53
2019-05-10T08:38:08.834Z,53.80
2019-05-10T08:40:38.166Z,54.88
2019-05-10T08:43:09.729Z,54.07
2019-05-10T08:45:38.795Z,53.15
2019-05-10T08:48:07.326Z,51.87
2019-05-10T08:50:49.670Z,53.44
2019-05-10T08:53:11.172Z,53.59
2019-05-10T08:55:35.974Z,52.21
2019-05-10T08:58:04.469Z,53.68
2019-05-10T09:00:45.178Z,51.42
2019-05-10T09:03:09.575Z,51.72
2019-05-10T09:05:34.056Z,49.39
2019-05-10T09:08:05.671Z,51.44
2019-05-10T09:10:33.035Z,49.75
2019-05-10T09:13:03.297Z,49.04
2019-05-10T09:15:33.131Z,49.68
2019-05-10T09:18:04.454Z,49.86
2019-05-10T09:20:32.076Z,47.96
2019-05-10T09:23:02.380Z,48.95
2019-05-10T09:25:31.617Z,48.07
2019-05-10T09:28:10.621Z,48.98
2019-05-10T09:30:35.445Z,49.75
2019-05-10T09:33:08.591Z,47.71
2019-05-10T09:35:38.916Z,47.71
2019-05-10T09:38:04.796Z,46.32
2019-05-10T09:40:33.259Z,45.60
2019-05-10T09:43:07.366Z,46.64
2019-05-10T09:45:32.401Z,47.36
2019-05-10T09:48:02.484Z,45.39
2019-05-10T09:50:41.445Z,44.20
2019-05-10T09:53:01.173Z,46.05
2019-05-10T09:55:29.562Z,45.11
2019-05-10T09:57:58.420Z,45.51
2019-05-10T10:00:34.265Z,43.37
2019-05-10T10:03:03.226Z,43.67
2019-05-10T10:05:31.620Z,45.04
2019-05-10T10:08:03.681Z,45.33
2019-05-10T10:10:32.535Z,44.93
2019-05-10T10:13:08.451Z,47.05
2019-05-10T10:15:34.231Z,41.73
2019-05-10T10:18:00.782Z,44.29
2019-05-10T10:20:30.013Z,43.94
2019-05-10T10:22:58.846Z,45.20
2019-05-10T10:25:29.958Z,45.25
2019-05-10T10:27:57.514Z,44.22
2019-05-10T10:30:27.252Z,40.76
2019-05-10T10:32:58.086Z,41.28
2019-05-10T10:35:29.423Z,39.41
2019-05-10T10:37:57.373Z,39.59
2019-05-10T10:40:27.919Z,40.91
2019-05-10T10:42:57.740Z,36.73
2019-05-10T10:45:27.708Z,37.62
2019-05-10T10:47:57.324Z,38.02
2019-05-10T10:50:27.508Z,39.29
2019-05-10T10:52:57.499Z,38.44
2019-05-10T10:55:32.444Z,40.75
2019-05-10T10:57:57.699Z,37.80
2019-05-10T11:00:34.400Z,36.00
2019-05-10T11:03:04.908Z,37.21
2019-05-10T11:05:33.360Z,35.27
2019-05-10T11:08:01.784Z,36.69
2019-05-10T11:10:31.616Z,36.82
2019-05-10T11:13:02.364Z,35.29
2019-05-10T11:15:35.878Z,36.94
2019-05-10T11:18:00.694Z,37.91
2019-05-10T11:20:31.480Z,33.92
2019-05-10T11:22:59.219Z,33.33
2019-05-10T11:25:27.609Z,34.88
2019-05-10T11:27:58.756Z,35.90
2019-05-10T11:30:26.142Z,34.50
2019-05-10T11:32:54.527Z,35.37
2019-05-10T11:35:28.477Z,36.57
2019-05-10T11:37:53.330Z,38.88
2019-05-10T11:40:30.288Z,36.65
2019-05-10T11:42:51.912Z,36.27
2019-05-10T11:45:26.117Z,34.68
2019-05-10T11:47:54.418Z,34.19
2019-05-10T11:50:31.552Z,36.28
2019-05-10T11:52:51.880Z,36.27
2019-05-10T11:55:21.607Z,35.85
2019-05-10T11:58:01.533Z,36.57
2019-05-10T12:00:29.249Z,36.23
2019-05-10T12:03:11.307Z,35.17
2019-05-10T12:05:26.331Z,37.52
2019-05-10T12:07:54.147Z,36.96
2019-05-10T12:10:25.570Z,35.51
2019-05-10T12:15:25.358Z,38.32
2019-05-10T12:17:58.628Z,37.51
2019-05-10T12:20:29.468Z,38.04
2019-05-10T12:22:52.296Z,37.23
2019-05-10T12:26:31.162Z,36.03
2019-05-10T12:26:50.411Z,36.80
2019-05-10T12:27:52.415Z,36.08
2019-05-10T12:30:21.754Z,34.81
2019-05-10T12:32:56.001Z,36.42
2019-05-10T12:35:21.415Z,37.19
2019-05-10T12:37:54.014Z,37.03
2019-05-10T12:40:23.784Z,36.46
2019-05-10T12:42:50.619Z,36.25
2019-05-10T12:45:22.857Z,36.87
2019-05-10T12:47:51.850Z,38.04
2019-05-10T12:50:22.313Z,37.95
2019-05-10T12:53:03.134Z,37.56
2019-05-10T12:55:20.996Z,38.22
2019-05-10T12:57:49.386Z,36.74
2019-05-10T13:00:17.946Z,35.80
2019-05-10T13:02:51.443Z,36.06
2019-05-10T13:05:16.517Z,36.96
2019-05-10T13:07:44.959Z,36.32
2019-05-10T13:10:13.968Z,35.23
2019-05-10T13:12:46.868Z,35.87
2019-05-10T13:15:14.902Z,36.18
2019-05-10T13:17:50.236Z,34.84
2019-05-10T13:20:13.946Z,33.92
2019-05-10T13:22:42.356Z,36.09
2019-05-10T13:25:11.116Z,35.34
2019-05-10T13:27:39.545Z,36.09
2019-05-10T13:30:10.636Z,33.53
2019-05-10T13:32:39.033Z,32.78
2019-05-10T13:35:08.265Z,34.25
2019-05-10T13:37:36.683Z,34.08
2019-05-10T13:40:08.082Z,35.66
2019-05-10T13:42:43.387Z,32.20
2019-05-10T13:45:07.395Z,31.83
2019-05-10T13:47:35.788Z,32.38
2019-05-10T13:50:06.359Z,34.59
2019-05-10T13:52:40.701Z,33.35
2019-05-10T13:55:06.336Z,34.20
2019-05-10T13:57:34.725Z,34.98
2019-05-10T14:00:05.050Z,33.47
2019-05-10T14:02:34.877Z,31.40
2019-05-10T14:05:04.158Z,32.90
2019-05-10T14:07:33.043Z,31.88
2019-05-10T14:10:01.467Z,32.94
2019-05-10T14:12:29.829Z,32.78
2019-05-10T14:15:02.521Z,32.82
2019-05-10T14:17:28.441Z,32.73
2019-05-10T14:19:57.164Z,32.86
2019-05-10T14:22:28.365Z,31.78
2019-05-10T14:24:59.161Z,31.88
2019-05-10T14:27:30.048Z,32.33
2019-05-10T14:29:56.375Z,32.47
2019-05-10T14:32:24.776Z,33.09
2019-05-10T14:34:53.169Z,30.80
2019-05-10T14:37:21.745Z,30.90
2019-05-10T14:39:50.305Z,30.93
2019-05-10T14:42:23.986Z,33.51
2019-05-10T14:44:49.406Z,33.12
2019-05-10T14:47:17.792Z,30.96
2019-05-10T14:49:47.210Z,33.62
2019-05-10T14:52:16.375Z,32.20
2019-05-10T14:54:49.770Z,32.98
2019-05-10T14:57:14.866Z,33.33
2019-05-10T14:59:43.272Z,32.18
2019-05-10T15:02:16.796Z,33.16
2019-05-10T15:04:44.996Z,31.89
2019-05-10T15:07:14.458Z,31.71
2019-05-10T15:09:42.109Z,33.61
2019-05-10T15:12:16.311Z,32.47
2019-05-10T15:14:40.650Z,31.26
2019-05-10T15:17:09.306Z,32.02
2019-05-10T15:19:37.701Z,31.07
2019-05-10T15:22:06.147Z,31.93
2019-05-10T15:24:34.533Z,31.41
2019-05-10T15:27:02.930Z,30.74
2019-05-10T15:29:31.360Z,31.33
2019-05-10T15:31:59.837Z,31.22
2019-05-10T15:34:28.232Z,33.46
2019-05-10T15:36:56.645Z,33.44
2019-05-10T15:39:29.015Z,33.07
2019-05-10T15:41:59.184Z,32.32
2019-05-10T15:44:31.455Z,31.86
2019-05-10T15:46:55.415Z,32.59
2019-05-10T15:49:24.617Z,32.66
2019-05-10T15:51:55.314Z,32.95
2019-05-10T15:54:23.226Z,31.37
2019-05-10T15:56:55.232Z,33.19
2019-05-10T15:59:21.849Z,32.86
2019-05-10T16:01:50.219Z,32.83
2019-05-10T16:04:18.609Z,31.98
2019-05-10T16:06:47.032Z,32.07
2019-05-10T16:09:18.906Z,32.46
2019-05-10T16:11:45.809Z,31.45
2019-05-10T16:14:14.226Z,32.53
2019-05-10T16:16:42.626Z,31.83
2019-05-10T16:19:12.952Z,30.56
2019-05-10T16:21:41.232Z,32.01
2019-05-10T16:24:09.622Z,34.07
2019-05-10T16:26:38.012Z,33.05
2019-05-10T16:29:06.444Z,32.87
2019-05-10T16:31:34.836Z,32.87
2019-05-10T16:34:03.232Z,34.08
2019-05-10T16:36:31.743Z,35.22
2019-05-10T16:39:01.805Z,34.19
2019-05-10T16:41:30.742Z,34.10
2019-05-10T16:44:00.182Z,33.07
2019-05-10T16:46:28.735Z,33.90
2019-05-10T16:48:57.132Z,33.84
2019-05-10T16:51:25.538Z,35.21
2019-05-10T16:53:53.930Z,35.47
2019-05-10T16:56:22.319Z,35.23
2019-05-10T16:58:53.195Z,35.00
2019-05-10T17:01:25.132Z,34.91
2019-05-10T17:03:59.146Z,36.32
2019-05-10T17:06:21.138Z,35.56
2019-05-10T17:08:49.533Z,37.01
2019-05-10T17:11:17.945Z,36.50
2019-05-10T17:13:46.346Z,37.76
2019-05-10T17:16:17.200Z,37.96
2019-05-10T17:18:50.059Z,38.11
2019-05-10T17:21:14.996Z,36.47
2019-05-10T17:23:46.955Z,37.59
2019-05-10T17:26:13.516Z,37.07
2019-05-10T17:28:41.934Z,37.34
2019-05-10T17:31:10.331Z,37.12
2019-05-10T17:33:42.655Z,36.96
2019-05-10T17:36:09.127Z,37.42
2019-05-10T17:38:37.702Z,38.07
2019-05-10T17:41:06.090Z,38.03
2019-05-10T17:43:34.510Z,37.35
2019-05-10T17:46:02.908Z,39.44
2019-05-10T17:48:31.302Z,39.58
2019-05-10T17:50:59.714Z,39.00
2019-05-10T17:53:28.111Z,39.63
2019-05-10T17:56:02.196Z,39.91
2019-05-10T17:58:27.929Z,40.35
2019-05-10T18:00:56.749Z,41.36
2019-05-10T18:03:25.139Z,41.67
2019-05-10T18:05:53.741Z,41.79
2019-05-10T18:08:22.141Z,42.47
2019-05-10T18:10:50.551Z,43.37
2019-05-10T18:13:18.946Z,44.82
2019-05-10T18:15:47.346Z,47.75
2019-05-10T18:18:16.719Z,45.63
2019-05-10T18:20:45.141Z,46.45
2019-05-10T18:23:20.174Z,47.42
2019-05-10T18:25:43.648Z,48.36
2019-05-10T18:28:12.070Z,47.36
2019-05-10T18:30:40.473Z,47.59
2019-05-10T18:33:12.171Z,48.60
2019-05-10T18:35:40.179Z,49.71
2019-05-10T18:38:08.516Z,50.12
2019-05-10T18:40:36.908Z,51.68
2019-05-10T18:43:05.883Z,51.00
2019-05-10T18:45:34.359Z,52.40
2019-05-10T18:48:02.773Z,53.34
2019-05-10T18:50:31.263Z,54.78
2019-05-10T18:52:59.659Z,55.69
2019-05-10T18:55:28.056Z,55.92
2019-05-10T18:57:56.738Z,56.58
2019-05-10T19:00:25.500Z,58.70
2019-05-10T19:02:55.618Z,58.94
2019-05-10T19:05:31.675Z,58.86
2019-05-10T19:08:03.284Z,60.06
2019-05-10T19:10:24.329Z,60.45
2019-05-10T19:13:00.297Z,63.55
2019-05-10T19:15:23.193Z,65.27
2019-05-10T19:17:51.576Z,64.22
2019-05-10T19:20:20.070Z,64.48
2019-05-10T19:22:48.462Z,64.58
2019-05-10T19:25:16.859Z,63.67
2019-05-10T19:27:50.612Z,63.40
2019-05-10T19:30:20.198Z,63.80
2019-05-10T19:32:51.276Z,65.31
2019-05-10T19:35:16.417Z,67.46
2019-05-10T19:37:44.812Z,68.16
2019-05-10T19:40:13.373Z,68.39
2019-05-10T19:42:43.123Z,69.23
2019-05-10T19:45:18.685Z,71.91
2019-05-10T19:47:42.658Z,71.52
2019-05-10T19:50:11.412Z,72.00
2019-05-10T19:52:39.808Z,73.62
2019-05-10T19:55:13.172Z,74.37
2019-05-10T19:57:38.418Z,75.94
2019-05-10T20:00:11.280Z,76.87
2019-05-10T20:02:39.687Z,76.44
2019-05-10T20:05:08.367Z,77.32
2019-05-10T20:07:45.399Z,78.87
2019-05-10T20:10:08.176Z,78.23
2019-05-10T20:12:36.831Z,76.50
2019-05-10T20:15:09.049Z,77.00
2019-05-10T20:17:37.639Z,78.63
2019-05-10T20:20:07.785Z,78.28
2019-05-10T20:22:36.570Z,78.15
2019-05-10T20:25:06.695Z,81.37
2019-05-10T20:27:35.110Z,81.45
2019-05-10T20:30:04.450Z,80.69
2019-05-10T20:32:32.863Z,80.94
2019-05-10T20:35:01.562Z,81.45
2019-05-10T20:37:29.938Z,81.83
2019-05-10T20:39:58.348Z,81.93
2019-05-10T20:42:26.786Z,82.64
2019-05-10T20:45:06.751Z,83.27
2019-05-10T20:47:25.293Z,82.82
2019-05-10T20:49:53.732Z,84.31
2019-05-10T20:52:22.150Z,83.61
2019-05-10T20:54:50.536Z,82.77
2019-05-10T20:57:18.950Z,82.08
2019-05-10T20:59:47.343Z,82.31
2019-05-10T21:02:15.736Z,83.04
2019-05-10T21:04:44.188Z,84.70
2019-05-10T21:10:08.538Z,84.72
2019-05-10T21:12:36.925Z,84.58
2019-05-10T21:15:08.922Z,83.56
2019-05-10T21:17:37.326Z,82.35
2019-05-10T21:20:07.249Z,83.14
2019-05-10T21:22:35.637Z,84.11
2019-05-10T21:25:06.262Z,85.03
2019-05-10T21:27:34.651Z,84.50
2019-05-10T21:30:04.346Z,83.41
2019-05-10T21:32:32.859Z,83.13
2019-05-10T21:35:01.248Z,83.80
2019-05-10T21:37:29.639Z,83.76
2019-05-10T21:39:58.053Z,84.59
2019-05-10T21:42:26.443Z,84.92
2019-05-10T21:44:54.836Z,85.48
2019-05-10T21:47:23.250Z,88.10
2019-05-10T21:49:52.037Z,88.44
2019-05-10T21:52:20.436Z,88.17
2019-05-10T21:54:48.865Z,87.88
2019-05-10T21:57:17.254Z,87.82
2019-05-10T21:59:45.650Z,88.02
2019-05-10T22:02:14.132Z,88.13
2019-05-10T22:04:42.867Z,88.16
2019-05-10T22:07:11.257Z,87.58
2019-05-10T22:09:39.679Z,87.80
2019-05-10T22:12:08.404Z,87.76
2019-05-10T22:14:36.793Z,87.99
2019-05-10T22:17:05.776Z,87.90
2019-05-10T22:19:34.161Z,88.08
2019-05-10T22:22:02.587Z,87.67
2019-05-10T22:24:31.054Z,87.34
2019-05-10T22:26:59.700Z,87.90
2019-05-10T22:29:28.396Z,88.03
2019-05-10T22:31:56.813Z,88.20
2019-05-10T22:34:25.268Z,87.64
2019-05-10T22:36:53.674Z,87.88
2019-05-10T22:39:22.345Z,87.71
2019-05-10T22:41:52.994Z,87.37
2019-05-10T22:44:20.846Z,88.59
2019-05-10T22:46:49.261Z,88.34
2019-05-10T22:49:17.653Z,87.86
2019-05-10T22:51:46.048Z,87.92
2019-05-10T22:54:14.473Z,87.89
2019-05-10T22:56:42.863Z,88.33
2019-05-10T22:59:14.096Z,88.10
2019-05-10T23:01:42.667Z,88.37
2019-05-10T23:04:11.069Z,88.79
2019-05-10T23:06:39.453Z,89.15
2019-05-10T23:09:23.448Z,89.37
2019-05-10T23:11:38.836Z,88.63
2019-05-10T23:14:07.294Z,87.88
2019-05-10T23:16:35.701Z,87.70
2019-05-10T23:19:04.087Z,87.80
2019-05-10T23:21:32.482Z,87.94
2019-05-10T23:24:02.535Z,88.47
2019-05-10T23:26:30.920Z,88.28
2019-05-10T23:28:59.309Z,88.43
2019-05-10T23:31:27.732Z,88.66
2019-05-10T23:33:56.358Z,88.89
2019-05-10T23:36:24.753Z,88.45
2019-05-10T23:38:53.530Z,88.76
2019-05-10T23:41:21.918Z,93.87
2019-05-10T23:43:50.335Z,95.18
2019-05-10T23:46:18.793Z,95.71
2019-05-10T23:48:47.181Z,95.86
2019-05-10T23:51:15.566Z,96.09
2019-05-10T23:53:43.994Z,95.81
2019-05-10T23:56:12.380Z,95.90
2019-05-10T23:58:40.760Z,95.91
